Latest Weather Observations for Argyle

IDW60801

Issued at 1:33 pm WST Tuesday 28 July 2015 (issued every 30 minutes, with the page automatically refreshed every 10 minutes)

About weather observations | Map of weather stations | Latest weather observations for WA | Other Formats
Station Details ID: 002064 Name: ARGYLE AERODROME Lat: -16.64 Lon: 128.45 Height: 164.0 m
Data from the previous 72 hours. | See also: Recent months at Argyle
Date/Time
WST
Temp
°C
App
Temp
°C
Dew
Point
Rel
Hum
%
Delta-T
°C
Wind Press
QNH
hPa
Press
MSL
hPa
Rain
since 9 am
mm
Dir
 
Spd
km/h
Gust
km/h
Spd
kts
Gust
kts
28/01:30pm 28.8 24.3 2.0 18 13.2 ESE 15 20 8 11 1019.7 - 0.0
28/01:00pm 28.0 23.1 2.2 19 12.7 SSE 17 20 9 11 1020.2 - 0.0
28/12:30pm 28.1 23.6 2.4 19 12.7 SE 15 28 8 15 1020.7 - 0.0
28/12:00pm 27.3 23.3 2.9 20 12.1 ESE 13 28 7 15 1021.3 1020.6 0.0
28/11:30am 26.5 21.6 1.9 20 11.9 ESE 17 26 9 14 1022.0 - 0.0
28/11:00am 25.9 20.6 1.8 21 11.6 SE 19 24 10 13 1022.7 - 0.0
28/10:30am 24.8 19.3 1.7 22 11.0 SE 20 28 11 15 1023.3 - 0.0
28/10:00am 25.3 20.4 2.0 22 11.2 SE 17 26 9 14 1023.7 - 0.0
28/09:30am 24.2 18.9 1.9 23 10.7 ESE 19 28 10 15 1024.2 - 0.0
28/09:00am 23.3 17.4 1.6 24 10.2 ESE 22 30 12 16 1024.4 1023.8 0.0
28/08:30am 22.8 16.9 1.7 25 9.9 E 22 32 12 17 1024.4 - 0.0
28/08:00am 22.5 17.2 1.8 25 9.7 ESE 19 26 10 14 1024.2 - 0.0
28/07:30am 21.8 15.9 1.5 26 9.4 ESE 22 33 12 18 1024.0 - 0.0
28/07:00am 21.5 22.7 21.5 100 0.0 ESE 17 24 9 13 1024.0 - 0.0
28/06:30am 20.8 21.3 20.8 100 0.0 ESE 19 26 10 14 1023.6 - 0.0
28/06:00am 20.2 20.4 20.2 100 0.0 ESE 19 28 10 15 1023.4 1022.8 0.0
28/05:30am 20.1 17.1 10.8 55 5.1 SE 17 24 9 13 1022.9 - 0.0
28/05:00am 19.8 15.7 4.2 35 7.5 SE 15 22 8 12 1022.4 - 0.0
28/04:30am 20.3 16.9 4.2 34 7.8 ESE 11 20 6 11 1021.9 - 0.0
28/04:00am 19.5 17.5 6.3 42 6.6 ESE 6 7 3 4 1021.7 - 0.0
28/03:30am 20.1 17.9 6.1 40 7.0 ESE 7 9 4 5 1021.6 - 0.0
28/03:00am 20.8 19.7 6.9 40 7.1 E 2 6 1 3 1021.5 1020.8 0.0
28/02:30am 21.9 20.5 5.3 34 8.3 NE 2 11 1 6 1021.4 - 0.0
28/02:00am 21.5 19.2 5.8 36 7.9 ESE 7 11 4 6 1021.4 - 0.0
28/01:30am 22.1 18.4 6.2 35 8.1 SE 15 24 8 13 1021.4 - 0.0
28/01:00am 22.3 18.6 6.2 35 8.2 SE 15 19 8 10 1021.5 - 0.0
28/12:30am 22.8 19.1 6.4 34 8.4 SE 15 19 8 10 1021.5 - 0.0
28/12:00am 23.6 19.5 6.3 32 8.9 SE 17 22 9 12 1021.6 1020.9 0.0
 
Date/Time
WST
Temp
°C
App
Temp
°C
Dew
Point
Rel
Hum
%
Delta-T
°C
Wind Press
QNH
hPa
Press
MSL
hPa
Rain
since 9 am
mm
Dir
 
Spd
km/h
Gust
km/h
Spd
kts
Gust
kts
27/11:30pm 24.1 20.1 6.5 32 9.1 SE 17 22 9 12 1021.6 - 0.0
27/11:00pm 24.7 20.8 7.0 32 9.3 SE 17 22 9 12 1021.5 - 0.0
27/10:30pm 25.1 21.2 7.3 32 9.4 SE 17 24 9 13 1021.6 - 0.0
27/10:00pm 25.4 21.6 7.5 32 9.5 SE 17 24 9 13 1021.7 - 0.0
27/09:30pm 25.4 22.0 7.5 32 9.5 SE 15 22 8 12 1021.6 - 0.0
27/09:00pm 24.9 21.9 7.8 33 9.1 SE 13 17 7 9 1021.3 1020.6 0.0
27/08:30pm 24.5 22.3 8.0 35 8.8 ESE 9 13 5 7 1021.2 - 0.0
27/08:00pm 25.1 22.9 7.9 33 9.2 ESE 9 13 5 7 1020.9 - 0.0
27/07:30pm 25.3 23.3 8.5 34 9.1 ESE 9 11 5 6 1020.5 - 0.0
27/07:00pm 25.9 23.8 8.1 32 9.6 E 9 11 5 6 1020.0 - 0.0
27/06:30pm 27.4 24.9 8.1 29 10.5 SE 11 13 6 7 1019.5 - 0.0
27/05:30pm 29.4 26.7 7.2 24 12.0 ESE 11 15 6 8 1018.7 - 0.0
27/05:00pm 30.7 27.4 6.6 22 13.0 ESE 13 20 7 11 1018.2 - 0.0
27/04:30pm 31.6 27.0 5.8 20 13.8 ESE 19 28 10 15 1017.8 - 0.0
27/04:00pm 32.1 27.3 5.5 19 14.2 E 20 28 11 15 1017.7 - 0.0
27/03:30pm 32.6 28.0 5.5 18 14.5 ESE 19 30 10 16 1017.5 - 0.0
27/03:00pm 32.7 27.8 5.1 17 14.7 E 20 33 11 18 1017.5 1016.9 0.0
27/02:30pm 33.2 28.4 5.4 17 14.9 E 20 33 11 18 1017.7 - 0.0
27/02:00pm 32.4 27.2 5.4 18 14.4 ESE 22 32 12 17 1017.9 - 0.0
27/01:30pm 32.4 28.5 5.4 18 14.4 ESE 15 20 8 11 1018.1 - 0.0
27/01:00pm 32.5 26.7 4.6 17 14.7 E 24 35 13 19 1018.4 - 0.0
27/12:30pm 33.0 28.6 5.0 17 14.9 E 17 24 9 13 1018.8 - 0.0
27/12:00pm 32.0 26.6 4.6 18 14.4 ESE 22 35 12 19 1019.4 1018.7 0.0
27/11:30am 31.5 26.5 4.6 18 14.1 E 20 30 11 16 1019.9 - 0.0
27/11:00am 30.4 25.0 4.7 19 13.4 ESE 22 35 12 19 1020.6 - 0.0
27/10:30am 30.3 25.9 4.8 20 13.3 E 17 26 9 14 1021.1 - 0.0
27/10:00am 29.2 23.4 4.6 21 12.7 ENE 24 32 13 17 1021.5 - 0.0
27/09:30am 29.1 24.8 5.4 22 12.4 E 17 26 9 14 1021.9 - 0.0
27/09:00am 28.6 24.8 5.7 23 12.0 E 15 24 8 13 1022.1 1021.4 0.0
27/08:30am 27.6 24.4 6.7 26 11.1 SE 13 19 7 10 1022.2 - 0.0
27/08:00am 27.0 23.2 7.6 29 10.4 SE 17 24 9 13 1021.9 - 0.0
27/07:30am 26.9 24.0 8.3 31 10.1 SE 13 20 7 11 1021.7 - 0.0
27/07:00am 25.4 23.6 9.4 36 8.8 SSE 9 13 5 7 1021.5 - 0.0
27/06:30am 23.8 22.3 10.7 43 7.3 SSE 9 11 5 6 1021.0 - 0.0
27/06:00am 22.7 21.8 10.6 46 6.7 NNE 6 7 3 4 1020.7 1020.0 0.0
27/05:30am 23.3 22.5 10.9 45 6.9 SSE 6 7 3 4 1019.9 - 0.0
27/05:00am 24.4 23.1 11.1 43 7.5 S 9 13 5 7 1019.3 - 0.0
27/04:30am 24.7 23.4 11.3 43 7.6 S 9 13 5 7 1018.9 - 0.0
27/04:00am 23.9 22.8 11.8 46 6.9 SW 9 11 5 6 1018.5 - 0.0
27/03:30am 24.5 23.8 11.4 43 7.4 S 6 11 3 6 1018.3 - 0.0
27/03:00am 25.3 24.2 10.7 40 8.2 SSW 7 13 4 7 1018.2 1017.6 0.0
27/02:30am 26.0 25.2 11.2 39 8.4 SW 6 9 3 5 1018.4 - 0.0
27/02:00am 26.0 26.3 11.0 39 8.5 CALM 0 0 0 0 1018.3 - 0.0
27/01:30am 26.5 26.9 12.4 41 8.2 WSW 2 11 1 6 1018.5 - 0.0
27/01:00am 26.6 27.3 12.1 40 8.4 CALM 0 0 0 0 1018.8 - 0.0
27/12:30am 26.8 27.2 11.4 38 8.8 CALM 0 0 0 0 1019.1 - 0.0
27/12:00am 27.1 27.5 11.4 37 9.0 CALM 0 4 0 2 1019.1 1018.4 0.0
 
Date/Time
WST
Temp
°C
App
Temp
°C
Dew
Point
Rel
Hum
%
Delta-T
°C
Wind Press
QNH
hPa
Press
MSL
hPa
Rain
since 9 am
mm
Dir
 
Spd
km/h
Gust
km/h
Spd
kts
Gust
kts
26/11:30pm 27.4 26.7 11.4 37 9.2 SW 6 7 3 4 1019.1 - 0.0
26/11:00pm 26.1 24.8 11.4 39 8.4 W 9 9 5 5 1019.0 - 0.0
26/10:30pm 26.3 25.6 11.4 39 8.5 S 6 7 3 4 1019.1 - 0.0
26/10:00pm 26.8 26.4 13.0 42 8.1 SE 7 9 4 5 1019.2 - 0.0
26/09:30pm 27.0 26.3 12.0 39 8.7 SE 7 11 4 6 1019.2 - 0.0
26/09:00pm 28.3 27.6 12.0 36 9.5 ESE 7 9 4 5 1019.0 1018.3 0.0
26/08:30pm 28.6 28.4 12.9 38 9.3 SE 6 7 3 4 1018.8 - 0.0
26/08:00pm 29.6 29.3 12.7 35 10.0 ESE 6 7 3 4 1018.7 - 0.0
26/07:30pm 30.1 29.7 12.5 34 10.4 NE 6 7 3 4 1018.4 - 0.0
26/07:00pm 30.6 29.8 11.6 31 11.1 NE 7 9 4 5 1018.1 - 0.0
26/06:30pm 30.6 29.4 11.6 31 11.1 NNE 9 9 5 5 1017.6 - 0.0
26/06:00pm 30.5 31.0 12.9 34 10.5 ENE 2 6 1 3 1017.2 1016.6 0.0
26/05:30pm 31.2 30.7 12.1 31 11.3 E 6 7 3 4 1016.8 - 0.0
26/05:00pm 32.4 32.3 13.2 31 11.6 SE 6 7 3 4 1016.4 - 0.0
26/04:30pm 33.4 31.2 10.8 25 13.2 SSE 13 19 7 10 1016.1 - 0.0
26/04:00pm 33.7 32.8 10.8 24 13.4 ENE 6 9 3 5 1015.8 - 0.0
26/03:30pm 33.8 32.6 11.5 25 13.2 S 9 17 5 9 1015.7 - 0.0
26/03:00pm 34.8 33.1 10.0 22 14.4 ESE 9 17 5 9 1015.5 1014.8 0.0
26/02:30pm 33.7 30.9 10.0 23 13.7 SSE 15 24 8 13 1015.6 - 0.0
26/02:00pm 33.8 32.2 10.2 23 13.7 SE 9 17 5 9 1015.6 - 0.0
26/01:30pm 34.1 32.5 10.2 23 13.9 NE 9 15 5 8 1015.9 - 0.0
26/01:00pm 33.7 32.0 10.0 23 13.7 E 9 20 5 11 1016.2 - 0.0
26/12:30pm 33.9 32.2 9.8 23 13.9 WSW 9 17 5 9 1016.6 - 0.0
26/12:00pm 32.7 30.2 9.6 24 13.2 E 13 22 7 12 1017.1 1016.5 0.0
26/11:30am 32.8 30.8 7.2 20 14.1 SSW 7 13 4 7 1017.7 - 0.0
26/11:00am 31.7 28.9 6.9 21 13.5 S 11 19 6 10 1018.3 - 0.0
26/10:30am 31.4 27.7 4.7 18 14.0 S 13 22 7 12 1018.9 - 0.0
26/10:00am 30.3 26.9 4.2 19 13.5 S 11 19 6 10 1019.4 - 0.0
26/09:30am 29.4 25.7 4.4 20 12.9 S 13 20 7 11 1019.6 - 0.0
26/09:00am 28.4 24.6 4.1 21 12.4 S 13 20 7 11 1019.6 1018.9 0.0
26/08:30am 26.9 22.8 4.2 23 11.5 S 15 20 8 11 1019.7 - 0.0
26/08:00am 25.8 21.7 4.4 25 10.8 S 15 24 8 13 1019.5 - 0.0
26/07:30am 23.1 18.7 4.6 30 9.2 SSE 17 22 9 12 1019.2 - 0.0
26/07:00am 22.3 19.0 4.8 32 8.7 S 11 17 6 9 1018.7 - 0.0
26/06:30am 20.9 18.5 5.4 36 7.7 SSW 7 11 4 6 1018.3 - 0.0
26/06:00am 20.0 16.8 4.9 37 7.4 S 11 15 6 8 1018.1 1017.5 0.0
26/05:30am 20.5 18.3 6.0 38 7.3 SSW 7 9 4 5 1017.8 - 0.0
26/05:00am 19.9 17.9 6.4 41 6.8 S 6 9 3 5 1017.3 - 0.0
26/04:30am 20.5 18.1 5.4 37 7.5 W 7 9 4 5 1016.8 - 0.0
26/04:00am 20.4 18.4 6.1 39 7.2 S 6 9 3 5 1016.6 - 0.0
26/03:30am 20.2 18.3 6.9 42 6.8 S 6 7 3 4 1016.6 - 0.0
26/03:00am 21.7 18.9 5.3 34 8.2 WSW 9 9 5 5 1016.7 1016.0 0.0
26/02:30am 21.2 18.4 5.1 35 8.0 W 9 11 5 6 1016.9 - 0.0
26/02:00am 20.2 17.6 6.1 39 7.1 W 9 11 5 6 1017.1 - 0.0
26/01:30am 20.7 19.0 7.6 42 6.8 WSW 6 7 3 4 1017.2 - 0.0
26/01:00am 20.6 19.0 4.7 35 7.8 S 2 6 1 3 1017.5 - 0.0
26/12:30am 20.8 18.0 5.3 36 7.7 WSW 9 11 5 6 1017.3 - 0.0
26/12:00am 21.6 18.9 5.7 35 8.0 ESE 9 11 5 6 1017.4 1016.8 0.0
 
Date/Time
WST
Temp
°C
App
Temp
°C
Dew
Point
Rel
Hum
%
Delta-T
°C
Wind Press
QNH
hPa
Press
MSL
hPa
Rain
since 9 am
mm
Dir
 
Spd
km/h
Gust
km/h
Spd
kts
Gust
kts
25/11:30pm 23.6 22.1 4.9 29 9.4 NE 2 15 1 8 1017.4 - 0.0
25/11:00pm 22.8 21.0 7.3 37 8.1 ENE 6 6 3 3 1017.3 - 0.0
25/10:30pm 23.3 21.3 7.0 35 8.5 SSW 7 11 4 6 1017.4 - 0.0
25/10:00pm 25.0 22.2 5.2 28 10.1 WSW 9 11 5 6 1017.5 - 0.0
25/09:30pm 25.0 22.3 5.5 28 10.0 WSW 9 9 5 5 1017.7 - 0.0
25/09:00pm 24.6 22.0 6.0 30 9.6 WSW 9 11 5 6 1017.8 1017.2 0.0
25/08:30pm 25.2 22.5 5.8 28 10.0 SW 9 11 5 6 1017.7 - 0.0
25/08:00pm 27.5 25.4 5.6 24 11.4 SW 6 7 3 4 1017.4 - 0.0
25/07:30pm 27.0 24.5 4.7 24 11.4 WSW 7 9 4 5 1017.1 - 0.0
25/07:00pm 28.2 25.7 4.7 22 12.1 WSW 7 9 4 5 1016.7 - 0.0
25/06:30pm 28.1 25.9 6.1 24 11.6 W 7 9 4 5 1016.3 - 0.0
25/06:00pm 29.0 27.1 6.8 24 11.9 NNW 6 6 3 3 1015.9 1015.2 0.0
25/05:30pm 30.0 28.1 6.6 23 12.6 NNW 6 6 3 3 1015.5 - 0.0
25/05:00pm 31.9 29.4 4.8 18 14.3 N 7 7 4 4 1015.1 - 0.0
25/04:30pm 32.9 30.3 3.0 15 15.4 NNE 6 13 3 7 1014.7 - 0.0
25/04:00pm 33.3 30.2 3.6 15 15.5 NNE 9 15 5 8 1014.6 - 0.0
25/03:30pm 33.4 30.3 3.4 15 15.6 NE 9 15 5 8 1014.5 - 0.0
25/03:00pm 33.8 30.7 3.6 15 15.8 NE 9 17 5 9 1014.4 1013.7 0.0
25/02:30pm 33.6 29.9 2.4 14 16.0 N 11 17 6 9 1014.3 - 0.0
25/02:00pm 33.7 29.8 1.4 13 16.3 NNE 11 20 6 11 1014.6 - 0.0

Other Formats:

Comma delimited format used in spreadsheet applications
http://www.bom.gov.au/fwo/IDW60801/IDW60801.94217.axf

JavaScript Object Notation format (JSON) in row-major order
http://www.bom.gov.au/fwo/IDW60801/IDW60801.94217.json